createdAt,value
2017-05-15T00:07:45.093Z,0
2017-05-15T00:17:55.445Z,0
2017-05-15T00:28:05.898Z,0
2017-05-15T00:38:16.220Z,0
2017-05-15T00:48:26.694Z,0
2017-05-15T00:58:37.142Z,0
2017-05-15T01:08:47.628Z,0
2017-05-15T01:18:58.159Z,0
2017-05-15T01:29:08.695Z,0
2017-05-15T01:39:19.301Z,0
2017-05-15T01:49:29.874Z,0
2017-05-15T01:59:40.472Z,0
2017-05-15T02:09:51.070Z,0
2017-05-15T02:20:01.664Z,0
2017-05-15T02:30:12.191Z,0
2017-05-15T02:40:22.688Z,0
2017-05-15T02:50:33.175Z,0
2017-05-15T03:00:43.685Z,4
2017-05-15T03:10:54.171Z,24
2017-05-15T03:21:04.705Z,88
2017-05-15T03:31:15.230Z,268
2017-05-15T03:41:25.684Z,620
2017-05-15T03:51:36.180Z,1208
2017-05-15T04:01:46.611Z,1960
2017-05-15T04:11:56.939Z,2768
2017-05-15T04:22:07.156Z,3604
2017-05-15T04:32:17.195Z,4400
2017-05-15T04:42:27.113Z,5288
2017-05-15T04:52:36.944Z,6088
2017-05-15T05:02:46.687Z,6452
2017-05-15T05:12:56.309Z,6696
2017-05-15T05:23:05.726Z,7200
2017-05-15T05:33:15.096Z,8316
2017-05-15T05:43:24.298Z,12028
2017-05-15T05:53:33.453Z,15632
2017-05-15T06:03:42.539Z,20704
2017-05-15T06:13:51.537Z,23360
2017-05-15T06:24:00.365Z,27968
2017-05-15T06:34:09.084Z,32256
2017-05-15T06:44:17.680Z,39328
2017-05-15T06:54:26.191Z,49728
2017-05-15T07:04:34.652Z,50048
2017-05-15T07:14:43.121Z,54272
2017-05-15T07:24:51.485Z,63328
2017-05-15T07:34:59.825Z,64640
2017-05-15T07:45:08.059Z,77632
2017-05-15T07:55:16.279Z,88576
2017-05-15T08:05:24.342Z,82720
2017-05-15T08:15:32.394Z,91840
2017-05-15T08:25:40.369Z,96896
2017-05-15T08:35:48.287Z,96672
2017-05-15T08:45:56.122Z,102112
2017-05-15T08:56:03.956Z,106656
2017-05-15T09:06:11.750Z,113600
2017-05-15T09:16:19.521Z,111520
2017-05-15T09:26:27.260Z,104256
2017-05-15T09:36:34.878Z,103584
2017-05-15T09:46:42.465Z,105824
2017-05-15T09:56:49.972Z,127904
2017-05-15T10:06:57.427Z,38880
2017-05-15T10:17:04.934Z,123744
2017-05-15T10:27:12.443Z,124032
2017-05-15T10:37:19.673Z,128032
2017-05-15T10:47:26.899Z,136896
2017-05-15T10:57:34.238Z,138272
2017-05-15T11:07:41.608Z,120160
2017-05-15T11:17:49.036Z,119616
2017-05-15T11:27:56.572Z,136000
2017-05-15T11:38:03.918Z,137920
2017-05-15T11:48:11.514Z,137408
2017-05-15T11:58:19.070Z,134176
2017-05-15T12:08:26.578Z,138048
2017-05-15T12:18:33.990Z,131904
2017-05-15T12:28:41.443Z,117952
2017-05-15T12:38:48.849Z,117728
2017-05-15T12:48:56.221Z,110464
2017-05-15T12:59:03.522Z,84992
2017-05-15T13:09:10.767Z,117504
2017-05-15T13:19:17.965Z,107360
2017-05-15T13:29:25.369Z,112064
2017-05-15T13:39:32.715Z,97728
2017-05-15T13:49:40.054Z,26560
2017-05-15T13:59:47.498Z,87488
2017-05-15T14:09:54.888Z,90304
2017-05-15T14:20:02.171Z,86976
2017-05-15T14:30:09.399Z,81440
2017-05-15T14:40:16.523Z,77376
2017-05-15T14:50:23.661Z,80384
2017-05-15T15:00:30.878Z,82368
2017-05-15T15:10:38.073Z,76608
2017-05-15T15:20:45.539Z,15604
2017-05-15T15:30:53.174Z,54848
2017-05-15T15:41:00.644Z,46592
2017-05-15T15:51:07.912Z,40576
2017-05-15T16:01:15.104Z,35136
2017-05-15T16:11:22.370Z,38208
2017-05-15T16:21:29.687Z,37952
2017-05-15T16:31:36.969Z,13500
2017-05-15T16:41:44.288Z,12940
2017-05-15T16:51:51.726Z,13208
2017-05-15T17:01:59.311Z,10116
2017-05-15T17:12:07.176Z,11416
2017-05-15T17:22:15.151Z,10684
2017-05-15T17:32:23.198Z,9056
2017-05-15T17:42:31.328Z,6924
2017-05-15T17:52:39.695Z,6004
2017-05-15T18:02:48.229Z,4948
2017-05-15T18:12:56.904Z,4232
2017-05-15T18:23:05.692Z,3596
2017-05-15T18:33:14.566Z,2856
2017-05-15T18:43:23.531Z,1928
2017-05-15T18:53:32.551Z,1156
2017-05-15T19:03:41.637Z,592
2017-05-15T19:13:50.813Z,268
2017-05-15T19:24:00.056Z,124
2017-05-15T19:34:09.352Z,40
2017-05-15T19:44:18.623Z,12
2017-05-15T19:54:27.930Z,4
2017-05-15T20:04:37.222Z,0
2017-05-15T20:14:46.551Z,0
2017-05-15T20:24:55.979Z,0
2017-05-15T20:35:05.303Z,0
2017-05-15T20:45:14.652Z,0
2017-05-15T20:55:23.999Z,0
2017-05-15T21:05:33.326Z,0
2017-05-15T21:15:42.634Z,0
2017-05-15T21:25:51.981Z,0
2017-05-15T21:36:01.377Z,0
2017-05-15T21:46:10.726Z,0
2017-05-15T21:56:20.121Z,0
2017-05-15T22:06:29.548Z,0
2017-05-15T22:16:39.031Z,0
2017-05-15T22:26:48.509Z,0
2017-05-15T22:36:57.995Z,0
2017-05-15T22:47:07.477Z,0
2017-05-15T22:57:16.928Z,0
2017-05-15T23:07:26.398Z,0
2017-05-15T23:17:35.882Z,0
2017-05-15T23:27:45.408Z,0
2017-05-15T23:37:54.947Z,0
2017-05-15T23:48:04.524Z,0
2017-05-15T23:58:14.143Z,0
